Hardesty, Oklahoma
Current Conditions -  °F | °C
As of 4:53 AM on Sunday 23 Nov 2014 (Local Time) from KGUY Reporting Station
Clear Clear  
Wind Chill: 50°   Ceiling: Unl
Heat Index: 50°   Visibility: 10mi
Dew Point: 26°   Wind: 13mph
Humidity: 39%   Direction: 280°W
Pressure: 29.4"   Gusts: NA
Location:  36.62°N, 101.19°W
Report Text: KGUY 231053Z AUTO 28011KT 10SM CLR 10/M03 A2940 RMK AO2 SLP926 T01001033
Loading
Personal Weather Stations






























Interactive Weather Map New forecast layout! Learn more

10-Day Weather Forecast

Advertisements
Track Severe Weather on mobile